sensor_id;sensor_type;location;lat;lon;timestamp;temperature;humidity
72772;SHT30;60894;42.544;1.516;2023-08-17T00:01:20;20.82;40.77
72772;SHT30;60894;42.544;1.516;2023-08-17T00:03:47;20.65;40.55
72772;SHT30;60894;42.544;1.516;2023-08-17T00:06:14;20.98;40.71
72772;SHT30;60894;42.544;1.516;2023-08-17T00:08:41;21.00;39.52
72772;SHT30;60894;42.544;1.516;2023-08-17T00:11:08;20.61;39.54
72772;SHT30;60894;42.544;1.516;2023-08-17T00:13:35;21.00;40.91
72772;SHT30;60894;42.544;1.516;2023-08-17T00:16:03;20.86;41.38
72772;SHT30;60894;42.544;1.516;2023-08-17T00:18:31;20.93;41.28
72772;SHT30;60894;42.544;1.516;2023-08-17T00:20:58;20.85;40.27
72772;SHT30;60894;42.544;1.516;2023-08-17T00:23:25;20.76;41.14
72772;SHT30;60894;42.544;1.516;2023-08-17T00:25:53;20.76;41.50
72772;SHT30;60894;42.544;1.516;2023-08-17T00:28:20;20.82;41.41
72772;SHT30;60894;42.544;1.516;2023-08-17T00:30:46;20.37;42.20
72772;SHT30;60894;42.544;1.516;2023-08-17T00:33:13;20.45;42.06
72772;SHT30;60894;42.544;1.516;2023-08-17T00:35:42;20.42;41.74
72772;SHT30;60894;42.544;1.516;2023-08-17T00:38:11;20.25;40.10
72772;SHT30;60894;42.544;1.516;2023-08-17T00:40:38;20.03;40.21
72772;SHT30;60894;42.544;1.516;2023-08-17T00:43:05;19.89;40.66
72772;SHT30;60894;42.544;1.516;2023-08-17T00:45:32;19.80;40.60
72772;SHT30;60894;42.544;1.516;2023-08-17T00:47:59;19.87;41.01
72772;SHT30;60894;42.544;1.516;2023-08-17T00:50:27;19.98;42.09
72772;SHT30;60894;42.544;1.516;2023-08-17T00:52:56;20.18;41.93
72772;SHT30;60894;42.544;1.516;2023-08-17T00:55:24;20.21;41.87
72772;SHT30;60894;42.544;1.516;2023-08-17T00:57:51;20.22;42.36
72772;SHT30;60894;42.544;1.516;2023-08-17T01:00:20;20.38;41.98
72772;SHT30;60894;42.544;1.516;2023-08-17T01:02:47;20.31;41.40
72772;SHT30;60894;42.544;1.516;2023-08-17T01:05:14;20.28;41.69
72772;SHT30;60894;42.544;1.516;2023-08-17T01:07:41;20.42;41.64
72772;SHT30;60894;42.544;1.516;2023-08-17T01:10:10;20.34;42.00
72772;SHT30;60894;42.544;1.516;2023-08-17T01:12:42;20.69;41.63
72772;SHT30;60894;42.544;1.516;2023-08-17T01:15:14;20.49;40.30
72772;SHT30;60894;42.544;1.516;2023-08-17T01:17:43;20.22;40.40
72772;SHT30;60894;42.544;1.516;2023-08-17T01:20:14;20.13;42.20
72772;SHT30;60894;42.544;1.516;2023-08-17T01:22:45;20.32;41.67
72772;SHT30;60894;42.544;1.516;2023-08-17T01:25:13;20.24;41.67
72772;SHT30;60894;42.544;1.516;2023-08-17T01:27:41;20.24;40.51
72772;SHT30;60894;42.544;1.516;2023-08-17T01:30:11;19.87;42.41
72772;SHT30;60894;42.544;1.516;2023-08-17T01:32:41;20.10;42.26
72772;SHT30;60894;42.544;1.516;2023-08-17T01:35:18;20.10;41.70
72772;SHT30;60894;42.544;1.516;2023-08-17T01:37:50;20.16;40.40
72772;SHT30;60894;42.544;1.516;2023-08-17T01:40:19;20.17;40.84
72772;SHT30;60894;42.544;1.516;2023-08-17T01:42:48;19.84;41.66
72772;SHT30;60894;42.544;1.516;2023-08-17T01:45:16;19.80;41.27
72772;SHT30;60894;42.544;1.516;2023-08-17T01:47:43;19.66;41.90
72772;SHT30;60894;42.544;1.516;2023-08-17T01:50:10;20.07;41.90
72772;SHT30;60894;42.544;1.516;2023-08-17T01:52:37;20.11;41.65
72772;SHT30;60894;42.544;1.516;2023-08-17T01:55:05;20.11;41.41
72772;SHT30;60894;42.544;1.516;2023-08-17T01:57:33;19.73;42.88
72772;SHT30;60894;42.544;1.516;2023-08-17T02:00:01;19.50;43.87
72772;SHT30;60894;42.544;1.516;2023-08-17T02:02:28;19.48;43.49
72772;SHT30;60894;42.544;1.516;2023-08-17T02:04:55;19.12;44.13
72772;SHT30;60894;42.544;1.516;2023-08-17T02:07:22;19.10;43.18
72772;SHT30;60894;42.544;1.516;2023-08-17T02:09:49;19.08;42.94
72772;SHT30;60894;42.544;1.516;2023-08-17T02:12:16;19.11;43.14
72772;SHT30;60894;42.544;1.516;2023-08-17T02:14:44;18.68;43.47
72772;SHT30;60894;42.544;1.516;2023-08-17T02:17:11;18.84;44.19
72772;SHT30;60894;42.544;1.516;2023-08-17T02:19:39;18.97;42.95
72772;SHT30;60894;42.544;1.516;2023-08-17T02:22:05;19.10;43.01
72772;SHT30;60894;42.544;1.516;2023-08-17T02:24:32;19.55;42.94
72772;SHT30;60894;42.544;1.516;2023-08-17T02:26:59;19.52;42.83
72772;SHT30;60894;42.544;1.516;2023-08-17T02:29:26;19.79;42.37
72772;SHT30;60894;42.544;1.516;2023-08-17T02:31:54;19.97;41.87
72772;SHT30;60894;42.544;1.516;2023-08-17T02:34:21;19.73;41.86
72772;SHT30;60894;42.544;1.516;2023-08-17T02:36:48;19.84;41.99
72772;SHT30;60894;42.544;1.516;2023-08-17T02:39:15;19.79;42.03
72772;SHT30;60894;42.544;1.516;2023-08-17T02:41:42;19.97;42.07
72772;SHT30;60894;42.544;1.516;2023-08-17T02:44:10;19.91;41.13
72772;SHT30;60894;42.544;1.516;2023-08-17T02:46:37;19.79;41.24
72772;SHT30;60894;42.544;1.516;2023-08-17T02:49:05;19.96;41.76
72772;SHT30;60894;42.544;1.516;2023-08-17T02:51:32;19.65;41.81
72772;SHT30;60894;42.544;1.516;2023-08-17T02:53:59;19.53;41.63
72772;SHT30;60894;42.544;1.516;2023-08-17T02:56:26;19.39;42.41
72772;SHT30;60894;42.544;1.516;2023-08-17T02:58:53;19.66;42.08
72772;SHT30;60894;42.544;1.516;2023-08-17T03:01:20;19.28;41.38
72772;SHT30;60894;42.544;1.516;2023-08-17T03:03:47;19.00;41.88
72772;SHT30;60894;42.544;1.516;2023-08-17T03:06:15;19.08;42.28
72772;SHT30;60894;42.544;1.516;2023-08-17T03:08:42;19.01;43.05
72772;SHT30;60894;42.544;1.516;2023-08-17T03:11:09;18.88;43.93
72772;SHT30;60894;42.544;1.516;2023-08-17T03:13:36;19.12;42.96
72772;SHT30;60894;42.544;1.516;2023-08-17T03:16:03;19.04;42.91
72772;SHT30;60894;42.544;1.516;2023-08-17T03:18:30;19.00;41.18
72772;SHT30;60894;42.544;1.516;2023-08-17T03:20:57;18.78;40.93
72772;SHT30;60894;42.544;1.516;2023-08-17T03:23:25;18.63;40.75
72772;SHT30;60894;42.544;1.516;2023-08-17T03:25:52;18.54;42.38
72772;SHT30;60894;42.544;1.516;2023-08-17T03:28:19;18.92;42.80
72772;SHT30;60894;42.544;1.516;2023-08-17T03:30:46;19.16;42.48
72772;SHT30;60894;42.544;1.516;2023-08-17T03:33:13;19.22;41.96
72772;SHT30;60894;42.544;1.516;2023-08-17T03:35:40;19.29;41.07
72772;SHT30;60894;42.544;1.516;2023-08-17T03:38:07;18.95;40.51
72772;SHT30;60894;42.544;1.516;2023-08-17T03:40:35;19.14;42.22
72772;SHT30;60894;42.544;1.516;2023-08-17T03:43:02;19.19;42.59
72772;SHT30;60894;42.544;1.516;2023-08-17T03:45:29;19.16;42.77
72772;SHT30;60894;42.544;1.516;2023-08-17T03:47:57;19.31;42.54
72772;SHT30;60894;42.544;1.516;2023-08-17T03:50:28;19.11;42.71
72772;SHT30;60894;42.544;1.516;2023-08-17T03:52:55;19.04;41.23
72772;SHT30;60894;42.544;1.516;2023-08-17T03:55:22;18.83;41.22
72772;SHT30;60894;42.544;1.516;2023-08-17T03:57:50;19.05;42.30
72772;SHT30;60894;42.544;1.516;2023-08-17T04:00:17;19.07;42.28
72772;SHT30;60894;42.544;1.516;2023-08-17T04:02:44;18.92;42.73
72772;SHT30;60894;42.544;1.516;2023-08-17T04:05:11;19.16;42.52
72772;SHT30;60894;42.544;1.516;2023-08-17T04:07:38;19.10;42.32
72772;SHT30;60894;42.544;1.516;2023-08-17T04:10:06;19.23;42.14
72772;SHT30;60894;42.544;1.516;2023-08-17T04:12:33;19.14;41.13
72772;SHT30;60894;42.544;1.516;2023-08-17T04:15:02;19.21;42.01
72772;SHT30;60894;42.544;1.516;2023-08-17T04:17:29;19.41;41.63
72772;SHT30;60894;42.544;1.516;2023-08-17T04:19:55;19.33;41.89
72772;SHT30;60894;42.544;1.516;2023-08-17T04:22:23;19.18;42.50
72772;SHT30;60894;42.544;1.516;2023-08-17T04:24:50;19.33;42.32
72772;SHT30;60894;42.544;1.516;2023-08-17T04:27:17;19.11;42.41
72772;SHT30;60894;42.544;1.516;2023-08-17T04:29:44;18.97;43.01
72772;SHT30;60894;42.544;1.516;2023-08-17T04:32:15;19.10;42.93
72772;SHT30;60894;42.544;1.516;2023-08-17T04:34:42;18.95;40.81
72772;SHT30;60894;42.544;1.516;2023-08-17T04:37:09;18.53;40.66
72772;SHT30;60894;42.544;1.516;2023-08-17T04:39:36;18.32;43.94
72772;SHT30;60894;42.544;1.516;2023-08-17T04:42:03;18.32;43.41
72772;SHT30;60894;42.544;1.516;2023-08-17T04:44:30;18.13;43.10
72772;SHT30;60894;42.544;1.516;2023-08-17T04:46:57;18.12;43.70
72772;SHT30;60894;42.544;1.516;2023-08-17T04:49:25;18.47;43.35
72772;SHT30;60894;42.544;1.516;2023-08-17T04:51:52;18.71;42.95
72772;SHT30;60894;42.544;1.516;2023-08-17T04:54:19;18.83;42.84
72772;SHT30;60894;42.544;1.516;2023-08-17T04:56:46;18.90;42.52
72772;SHT30;60894;42.544;1.516;2023-08-17T04:59:13;18.56;40.74
72772;SHT30;60894;42.544;1.516;2023-08-17T05:01:40;18.51;42.40
72772;SHT30;60894;42.544;1.516;2023-08-17T05:04:07;18.65;42.77
72772;SHT30;60894;42.544;1.516;2023-08-17T05:06:35;18.46;42.94
72772;SHT30;60894;42.544;1.516;2023-08-17T05:09:04;18.83;42.86
72772;SHT30;60894;42.544;1.516;2023-08-17T05:11:32;18.84;42.66
72772;SHT30;60894;42.544;1.516;2023-08-17T05:13:59;18.72;42.91
72772;SHT30;60894;42.544;1.516;2023-08-17T05:16:26;18.90;42.40
72772;SHT30;60894;42.544;1.516;2023-08-17T05:18:53;18.84;42.77
72772;SHT30;60894;42.544;1.516;2023-08-17T05:21:20;18.72;42.35
72772;SHT30;60894;42.544;1.516;2023-08-17T05:23:48;18.87;42.54
72772;SHT30;60894;42.544;1.516;2023-08-17T05:26:15;18.91;41.82
72772;SHT30;60894;42.544;1.516;2023-08-17T05:28:42;18.40;41.97
72772;SHT30;60894;42.544;1.516;2023-08-17T05:31:10;18.63;42.28
72772;SHT30;60894;42.544;1.516;2023-08-17T05:33:37;18.50;42.96
72772;SHT30;60894;42.544;1.516;2023-08-17T05:36:06;18.57;42.85
72772;SHT30;60894;42.544;1.516;2023-08-17T05:38:33;18.53;42.57
72772;SHT30;60894;42.544;1.516;2023-08-17T05:41:01;18.26;42.76
72772;SHT30;60894;42.544;1.516;2023-08-17T05:43:29;18.03;42.96
72772;SHT30;60894;42.544;1.516;2023-08-17T05:45:57;18.19;43.15
72772;SHT30;60894;42.544;1.516;2023-08-17T05:48:24;18.49;42.79
72772;SHT30;60894;42.544;1.516;2023-08-17T05:50:51;18.77;42.45
72772;SHT30;60894;42.544;1.516;2023-08-17T05:53:18;18.88;41.83
72772;SHT30;60894;42.544;1.516;2023-08-17T05:55:45;18.68;42.01
72772;SHT30;60894;42.544;1.516;2023-08-17T05:58:13;18.81;42.01
72772;SHT30;60894;42.544;1.516;2023-08-17T06:00:40;18.83;41.77
72772;SHT30;60894;42.544;1.516;2023-08-17T06:03:07;19.04;41.69
72772;SHT30;60894;42.544;1.516;2023-08-17T06:05:34;19.05;42.07
72772;SHT30;60894;42.544;1.516;2023-08-17T06:08:01;18.77;41.55
72772;SHT30;60894;42.544;1.516;2023-08-17T06:10:28;19.04;41.34
72772;SHT30;60894;42.544;1.516;2023-08-17T06:12:55;18.98;42.27
72772;SHT30;60894;42.544;1.516;2023-08-17T06:15:24;19.05;42.25
72772;SHT30;60894;42.544;1.516;2023-08-17T06:17:51;18.70;41.89
72772;SHT30;60894;42.544;1.516;2023-08-17T06:20:18;18.41;43.32
72772;SHT30;60894;42.544;1.516;2023-08-17T06:22:47;18.65;42.94
72772;SHT30;60894;42.544;1.516;2023-08-17T06:25:14;18.71;43.41
72772;SHT30;60894;42.544;1.516;2023-08-17T06:27:41;18.98;43.05
72772;SHT30;60894;42.544;1.516;2023-08-17T06:30:10;18.91;41.54
72772;SHT30;60894;42.544;1.516;2023-08-17T06:32:38;18.88;41.90
72772;SHT30;60894;42.544;1.516;2023-08-17T06:35:06;19.07;41.92
72772;SHT30;60894;42.544;1.516;2023-08-17T06:37:33;18.95;41.48
72772;SHT30;60894;42.544;1.516;2023-08-17T06:40:00;19.07;41.92
72772;SHT30;60894;42.544;1.516;2023-08-17T06:42:28;18.78;42.40
72772;SHT30;60894;42.544;1.516;2023-08-17T06:44:55;18.44;42.81
72772;SHT30;60894;42.544;1.516;2023-08-17T06:47:22;18.59;43.07
72772;SHT30;60894;42.544;1.516;2023-08-17T06:49:50;18.37;43.23
72772;SHT30;60894;42.544;1.516;2023-08-17T06:52:17;18.74;43.38
72772;SHT30;60894;42.544;1.516;2023-08-17T06:54:44;18.85;42.97
72772;SHT30;60894;42.544;1.516;2023-08-17T06:57:11;18.80;42.89
72772;SHT30;60894;42.544;1.516;2023-08-17T06:59:38;18.97;42.28
72772;SHT30;60894;42.544;1.516;2023-08-17T07:02:05;19.04;41.59
72772;SHT30;60894;42.544;1.516;2023-08-17T07:04:32;18.75;42.01
72772;SHT30;60894;42.544;1.516;2023-08-17T07:07:00;18.97;43.87
72772;SHT30;60894;42.544;1.516;2023-08-17T07:09:27;18.92;42.18
72772;SHT30;60894;42.544;1.516;2023-08-17T07:11:54;18.87;42.32
72772;SHT30;60894;42.544;1.516;2023-08-17T07:14:21;18.75;42.35
72772;SHT30;60894;42.544;1.516;2023-08-17T07:16:48;18.92;41.95
72772;SHT30;60894;42.544;1.516;2023-08-17T07:19:15;19.10;42.02
72772;SHT30;60894;42.544;1.516;2023-08-17T07:21:42;19.25;41.72
72772;SHT30;60894;42.544;1.516;2023-08-17T07:24:15;19.12;41.37
72772;SHT30;60894;42.544;1.516;2023-08-17T07:26:42;19.26;41.50
72772;SHT30;60894;42.544;1.516;2023-08-17T07:29:09;19.19;40.98
72772;SHT30;60894;42.544;1.516;2023-08-17T07:31:37;19.41;40.62
72772;SHT30;60894;42.544;1.516;2023-08-17T07:34:04;19.43;39.75
72772;SHT30;60894;42.544;1.516;2023-08-17T07:36:31;19.53;39.38
72772;SHT30;60894;42.544;1.516;2023-08-17T07:38:58;19.65;39.26
72772;SHT30;60894;42.544;1.516;2023-08-17T07:41:26;19.76;39.11
72772;SHT30;60894;42.544;1.516;2023-08-17T07:43:53;19.82;39.42
72772;SHT30;60894;42.544;1.516;2023-08-17T07:46:20;19.89;38.72
72772;SHT30;60894;42.544;1.516;2023-08-17T07:48:47;19.96;38.24
72772;SHT30;60894;42.544;1.516;2023-08-17T07:51:14;20.06;38.12
72772;SHT30;60894;42.544;1.516;2023-08-17T07:53:41;20.25;38.06
72772;SHT30;60894;42.544;1.516;2023-08-17T07:56:08;20.34;36.75
72772;SHT30;60894;42.544;1.516;2023-08-17T07:58:37;20.42;36.31
72772;SHT30;60894;42.544;1.516;2023-08-17T08:01:04;20.62;35.71
72772;SHT30;60894;42.544;1.516;2023-08-17T08:03:31;20.75;35.58
72772;SHT30;60894;42.544;1.516;2023-08-17T08:05:58;20.83;36.13
72772;SHT30;60894;42.544;1.516;2023-08-17T08:08:25;20.96;36.47
72772;SHT30;60894;42.544;1.516;2023-08-17T08:10:53;21.09;35.45
72772;SHT30;60894;42.544;1.516;2023-08-17T08:13:20;21.23;34.18
72772;SHT30;60894;42.544;1.516;2023-08-17T08:15:48;21.32;35.00
72772;SHT30;60894;42.544;1.516;2023-08-17T08:18:15;21.43;33.88
72772;SHT30;60894;42.544;1.516;2023-08-17T08:20:42;21.49;33.94
72772;SHT30;60894;42.544;1.516;2023-08-17T08:23:09;21.58;34.40
72772;SHT30;60894;42.544;1.516;2023-08-17T08:25:36;21.73;34.18
72772;SHT30;60894;42.544;1.516;2023-08-17T08:28:04;21.81;33.17
72772;SHT30;60894;42.544;1.516;2023-08-17T08:30:31;21.95;31.90
72772;SHT30;60894;42.544;1.516;2023-08-17T08:32:59;22.02;31.06
72772;SHT30;60894;42.544;1.516;2023-08-17T08:35:28;22.18;31.33
72772;SHT30;60894;42.544;1.516;2023-08-17T08:37:55;22.33;30.30
72772;SHT30;60894;42.544;1.516;2023-08-17T08:40:27;22.48;29.96
72772;SHT30;60894;42.544;1.516;2023-08-17T08:42:55;22.67;29.44
72772;SHT30;60894;42.544;1.516;2023-08-17T08:45:23;22.83;29.34
72772;SHT30;60894;42.544;1.516;2023-08-17T08:47:51;23.00;30.38
72772;SHT30;60894;42.544;1.516;2023-08-17T08:50:21;23.14;29.83
72772;SHT30;60894;42.544;1.516;2023-08-17T08:52:56;23.30;30.38
72772;SHT30;60894;42.544;1.516;2023-08-17T08:55:29;23.47;29.95
72772;SHT30;60894;42.544;1.516;2023-08-17T08:57:56;23.57;30.36
72772;SHT30;60894;42.544;1.516;2023-08-17T09:00:25;23.72;29.67
72772;SHT30;60894;42.544;1.516;2023-08-17T09:02:53;23.88;28.65
72772;SHT30;60894;42.544;1.516;2023-08-17T09:05:22;24.05;28.18
72772;SHT30;60894;42.544;1.516;2023-08-17T09:07:49;24.24;28.57
72772;SHT30;60894;42.544;1.516;2023-08-17T09:10:16;24.46;28.55
72772;SHT30;60894;42.544;1.516;2023-08-17T09:12:45;24.65;28.46
72772;SHT30;60894;42.544;1.516;2023-08-17T09:15:12;24.81;27.52
72772;SHT30;60894;42.544;1.516;2023-08-17T09:17:39;24.99;27.92
72772;SHT30;60894;42.544;1.516;2023-08-17T09:20:08;25.19;27.49
72772;SHT30;60894;42.544;1.516;2023-08-17T09:22:40;25.33;25.47
72772;SHT30;60894;42.544;1.516;2023-08-17T09:25:08;25.45;26.47
72772;SHT30;60894;42.544;1.516;2023-08-17T09:27:36;25.56;26.88
72772;SHT30;60894;42.544;1.516;2023-08-17T09:30:03;25.74;25.87
72772;SHT30;60894;42.544;1.516;2023-08-17T09:32:32;25.92;26.02
72772;SHT30;60894;42.544;1.516;2023-08-17T09:35:01;26.14;25.44
72772;SHT30;60894;42.544;1.516;2023-08-17T09:37:28;26.33;25.26
72772;SHT30;60894;42.544;1.516;2023-08-17T09:39:57;26.61;24.49
72772;SHT30;60894;42.544;1.516;2023-08-17T09:42:24;26.69;24.60
72772;SHT30;60894;42.544;1.516;2023-08-17T09:44:53;26.91;24.41
72772;SHT30;60894;42.544;1.516;2023-08-17T09:47:21;27.10;24.39
72772;SHT30;60894;42.544;1.516;2023-08-17T09:49:49;27.22;23.85
72772;SHT30;60894;42.544;1.516;2023-08-17T09:52:16;27.29;23.73
72772;SHT30;60894;42.544;1.516;2023-08-17T09:54:43;27.40;24.05
72772;SHT30;60894;42.544;1.516;2023-08-17T09:57:14;27.53;23.27
72772;SHT30;60894;42.544;1.516;2023-08-17T09:59:41;27.65;24.03
72772;SHT30;60894;42.544;1.516;2023-08-17T10:02:16;27.81;23.49
72772;SHT30;60894;42.544;1.516;2023-08-17T10:04:49;27.95;23.51
72772;SHT30;60894;42.544;1.516;2023-08-17T10:07:18;28.04;23.21
72772;SHT30;60894;42.544;1.516;2023-08-17T10:09:50;28.12;23.38
72772;SHT30;60894;42.544;1.516;2023-08-17T10:12:23;28.26;23.62
72772;SHT30;60894;42.544;1.516;2023-08-17T10:14:56;28.36;23.31
72772;SHT30;60894;42.544;1.516;2023-08-17T10:17:26;28.42;23.30
72772;SHT30;60894;42.544;1.516;2023-08-17T10:19:56;28.56;23.54
72772;SHT30;60894;42.544;1.516;2023-08-17T10:22:28;28.57;23.55
72772;SHT30;60894;42.544;1.516;2023-08-17T10:25:00;28.48;23.01
72772;SHT30;60894;42.544;1.516;2023-08-17T10:27:29;28.52;22.94
72772;SHT30;60894;42.544;1.516;2023-08-17T10:29:56;28.53;23.15
72772;SHT30;60894;42.544;1.516;2023-08-17T10:32:24;28.56;23.00
72772;SHT30;60894;42.544;1.516;2023-08-17T10:34:53;28.56;23.01
72772;SHT30;60894;42.544;1.516;2023-08-17T10:37:20;28.67;23.06
72772;SHT30;60894;42.544;1.516;2023-08-17T10:39:49;28.84;23.26
72772;SHT30;60894;42.544;1.516;2023-08-17T10:42:31;28.86;23.57
72772;SHT30;60894;42.544;1.516;2023-08-17T10:44:58;28.92;23.57
72772;SHT30;60894;42.544;1.516;2023-08-17T10:47:28;29.03;23.60
72772;SHT30;60894;42.544;1.516;2023-08-17T10:49:57;29.02;23.99
72772;SHT30;60894;42.544;1.516;2023-08-17T10:52:26;29.11;23.50
72772;SHT30;60894;42.544;1.516;2023-08-17T10:54:53;29.33;22.99
72772;SHT30;60894;42.544;1.516;2023-08-17T10:57:35;29.34;23.60
72772;SHT30;60894;42.544;1.516;2023-08-17T11:00:14;29.30;23.17
72772;SHT30;60894;42.544;1.516;2023-08-17T11:02:43;29.47;24.27
72772;SHT30;60894;42.544;1.516;2023-08-17T11:05:11;29.59;24.26
72772;SHT30;60894;42.544;1.516;2023-08-17T11:07:40;29.61;23.64
72772;SHT30;60894;42.544;1.516;2023-08-17T11:10:27;29.59;23.22
72772;SHT30;60894;42.544;1.516;2023-08-17T11:12:56;29.62;23.32
72772;SHT30;60894;42.544;1.516;2023-08-17T11:15:25;29.79;23.81
72772;SHT30;60894;42.544;1.516;2023-08-17T11:17:52;30.05;24.30
72772;SHT30;60894;42.544;1.516;2023-08-17T11:20:19;30.26;24.76
72772;SHT30;60894;42.544;1.516;2023-08-17T11:22:46;30.23;24.33
72772;SHT30;60894;42.544;1.516;2023-08-17T11:25:13;30.33;24.47
72772;SHT30;60894;42.544;1.516;2023-08-17T11:27:41;30.43;24.75
72772;SHT30;60894;42.544;1.516;2023-08-17T11:30:11;30.37;24.36
72772;SHT30;60894;42.544;1.516;2023-08-17T11:32:38;30.48;24.41
72772;SHT30;60894;42.544;1.516;2023-08-17T11:35:05;30.60;25.08
72772;SHT30;60894;42.544;1.516;2023-08-17T11:37:32;30.73;24.35
72772;SHT30;60894;42.544;1.516;2023-08-17T11:39:59;30.66;24.85
72772;SHT30;60894;42.544;1.516;2023-08-17T11:42:26;30.59;24.69
72772;SHT30;60894;42.544;1.516;2023-08-17T11:44:53;31.02;24.96
72772;SHT30;60894;42.544;1.516;2023-08-17T11:47:23;31.15;24.85
72772;SHT30;60894;42.544;1.516;2023-08-17T11:49:50;31.18;24.51
72772;SHT30;60894;42.544;1.516;2023-08-17T11:52:16;31.16;24.40
72772;SHT30;60894;42.544;1.516;2023-08-17T11:54:43;31.24;23.87
72772;SHT30;60894;42.544;1.516;2023-08-17T11:57:11;31.35;24.49
72772;SHT30;60894;42.544;1.516;2023-08-17T11:59:38;31.53;24.37
72772;SHT30;60894;42.544;1.516;2023-08-17T12:02:04;31.72;24.44
72772;SHT30;60894;42.544;1.516;2023-08-17T12:04:33;31.69;23.53
72772;SHT30;60894;42.544;1.516;2023-08-17T12:07:01;31.86;23.91
72772;SHT30;60894;42.544;1.516;2023-08-17T12:09:28;31.53;23.97
72772;SHT30;60894;42.544;1.516;2023-08-17T12:11:58;31.76;23.26
72772;SHT30;60894;42.544;1.516;2023-08-17T12:14:27;31.90;23.54
72772;SHT30;60894;42.544;1.516;2023-08-17T12:16:55;31.41;23.73
72772;SHT30;60894;42.544;1.516;2023-08-17T12:19:24;31.21;23.56
72772;SHT30;60894;42.544;1.516;2023-08-17T12:21:53;31.39;23.92
72772;SHT30;60894;42.544;1.516;2023-08-17T12:24:20;31.42;23.72
72772;SHT30;60894;42.544;1.516;2023-08-17T12:26:50;31.67;22.98
72772;SHT30;60894;42.544;1.516;2023-08-17T12:29:17;31.62;22.92
72772;SHT30;60894;42.544;1.516;2023-08-17T12:31:44;31.65;23.31
72772;SHT30;60894;42.544;1.516;2023-08-17T12:34:11;31.92;22.63
72772;SHT30;60894;42.544;1.516;2023-08-17T12:36:38;32.30;21.84
72772;SHT30;60894;42.544;1.516;2023-08-17T12:39:06;31.98;22.10
72772;SHT30;60894;42.544;1.516;2023-08-17T12:41:33;32.63;21.45
72772;SHT30;60894;42.544;1.516;2023-08-17T12:44:00;32.58;21.42
72772;SHT30;60894;42.544;1.516;2023-08-17T12:46:27;32.70;21.82
72772;SHT30;60894;42.544;1.516;2023-08-17T12:48:58;32.91;21.09
72772;SHT30;60894;42.544;1.516;2023-08-17T12:51:25;32.84;20.82
72772;SHT30;60894;42.544;1.516;2023-08-17T12:53:52;32.89;21.21
72772;SHT30;60894;42.544;1.516;2023-08-17T12:56:20;33.14;20.80
72772;SHT30;60894;42.544;1.516;2023-08-17T12:58:47;33.30;21.02
72772;SHT30;60894;42.544;1.516;2023-08-17T13:01:14;33.52;20.57
72772;SHT30;60894;42.544;1.516;2023-08-17T13:03:41;33.43;20.47
72772;SHT30;60894;42.544;1.516;2023-08-17T13:06:08;33.84;20.48
72772;SHT30;60894;42.544;1.516;2023-08-17T13:08:35;33.59;20.30
72772;SHT30;60894;42.544;1.516;2023-08-17T13:11:01;33.76;20.53
72772;SHT30;60894;42.544;1.516;2023-08-17T13:13:30;34.07;20.15
72772;SHT30;60894;42.544;1.516;2023-08-17T13:15:57;33.70;20.20
72772;SHT30;60894;42.544;1.516;2023-08-17T13:18:24;33.26;20.43
72772;SHT30;60894;42.544;1.516;2023-08-17T13:20:50;33.35;20.71
72772;SHT30;60894;42.544;1.516;2023-08-17T13:23:17;33.42;20.03
72772;SHT30;60894;42.544;1.516;2023-08-17T13:25:44;33.78;20.38
72772;SHT30;60894;42.544;1.516;2023-08-17T13:28:11;33.76;20.32
72772;SHT30;60894;42.544;1.516;2023-08-17T13:30:40;33.57;20.17
72772;SHT30;60894;42.544;1.516;2023-08-17T13:33:07;33.57;19.92
72772;SHT30;60894;42.544;1.516;2023-08-17T13:35:34;33.39;20.20
72772;SHT30;60894;42.544;1.516;2023-08-17T13:38:01;33.57;20.07
72772;SHT30;60894;42.544;1.516;2023-08-17T13:40:29;33.36;20.42
72772;SHT30;60894;42.544;1.516;2023-08-17T13:42:56;33.56;20.10
72772;SHT30;60894;42.544;1.516;2023-08-17T13:45:25;33.08;19.86
72772;SHT30;60894;42.544;1.516;2023-08-17T13:47:53;32.78;20.68
72772;SHT30;60894;42.544;1.516;2023-08-17T13:50:20;32.30;21.21
72772;SHT30;60894;42.544;1.516;2023-08-17T13:52:47;32.26;21.09
72772;SHT30;60894;42.544;1.516;2023-08-17T13:55:14;31.85;20.72
72772;SHT30;60894;42.544;1.516;2023-08-17T13:57:41;31.94;19.95
72772;SHT30;60894;42.544;1.516;2023-08-17T14:00:09;32.02;20.58
72772;SHT30;60894;42.544;1.516;2023-08-17T14:02:36;31.89;20.84
72772;SHT30;60894;42.544;1.516;2023-08-17T14:05:05;31.45;20.82
72772;SHT30;60894;42.544;1.516;2023-08-17T14:07:32;31.42;21.22
72772;SHT30;60894;42.544;1.516;2023-08-17T14:09:59;31.29;21.06
72772;SHT30;60894;42.544;1.516;2023-08-17T14:12:26;31.05;19.88
72772;SHT30;60894;42.544;1.516;2023-08-17T14:14:53;30.83;19.64
72772;SHT30;60894;42.544;1.516;2023-08-17T14:17:20;30.81;20.29
72772;SHT30;60894;42.544;1.516;2023-08-17T14:19:47;30.85;20.02
72772;SHT30;60894;42.544;1.516;2023-08-17T14:22:15;30.92;19.95
72772;SHT30;60894;42.544;1.516;2023-08-17T14:24:42;31.08;20.42
72772;SHT30;60894;42.544;1.516;2023-08-17T14:27:09;31.10;20.35
72772;SHT30;60894;42.544;1.516;2023-08-17T14:29:36;31.12;20.77
72772;SHT30;60894;42.544;1.516;2023-08-17T14:32:03;31.10;20.14
72772;SHT30;60894;42.544;1.516;2023-08-17T14:34:30;31.08;20.47
72772;SHT30;60894;42.544;1.516;2023-08-17T14:36:57;31.08;20.75
72772;SHT30;60894;42.544;1.516;2023-08-17T14:39:25;31.18;21.29
72772;SHT30;60894;42.544;1.516;2023-08-17T14:41:53;31.18;20.98
72772;SHT30;60894;42.544;1.516;2023-08-17T14:44:19;30.98;20.81
72772;SHT30;60894;42.544;1.516;2023-08-17T14:46:47;30.92;21.10
72772;SHT30;60894;42.544;1.516;2023-08-17T14:49:14;30.94;21.26
72772;SHT30;60894;42.544;1.516;2023-08-17T14:51:41;31.05;21.13
72772;SHT30;60894;42.544;1.516;2023-08-17T14:54:09;31.02;20.87
72772;SHT30;60894;42.544;1.516;2023-08-17T14:56:38;30.85;20.84
72772;SHT30;60894;42.544;1.516;2023-08-17T14:59:05;30.83;21.16
72772;SHT30;60894;42.544;1.516;2023-08-17T15:01:32;30.57;20.98
72772;SHT30;60894;42.544;1.516;2023-08-17T15:03:59;30.63;21.22
72772;SHT30;60894;42.544;1.516;2023-08-17T15:06:26;30.48;21.23
72772;SHT30;60894;42.544;1.516;2023-08-17T15:08:53;30.53;21.73
72772;SHT30;60894;42.544;1.516;2023-08-17T15:11:20;30.54;22.10
72772;SHT30;60894;42.544;1.516;2023-08-17T15:13:48;30.57;22.04
72772;SHT30;60894;42.544;1.516;2023-08-17T15:16:15;30.60;21.40
72772;SHT30;60894;42.544;1.516;2023-08-17T15:18:42;30.61;21.46
72772;SHT30;60894;42.544;1.516;2023-08-17T15:21:09;30.46;21.39
72772;SHT30;60894;42.544;1.516;2023-08-17T15:23:36;30.41;21.84
72772;SHT30;60894;42.544;1.516;2023-08-17T15:26:03;30.63;21.79
72772;SHT30;60894;42.544;1.516;2023-08-17T15:28:30;30.66;21.41
72772;SHT30;60894;42.544;1.516;2023-08-17T15:31:03;30.80;21.83
72772;SHT30;60894;42.544;1.516;2023-08-17T15:33:31;30.60;21.48